Current Conditions
Overcast
Conditions



Pressure
30 (inHG) - 1015.92 (mb)
Visibility

9.0 (miles) - 14.5 (km)
   Temperature
37  °F
3°C
30  °F
Dewpoint
75  %
 Humidity
   Wind Speed
9  mph
8  kts
14  km/h
4.0  m/s
   Wind Direction
 260°
Due West
   Airport Data
KRUT
Location Rutland - Southern Vermont Regional Airport 7 mi (11km)
Metar :KRUT 081056Z AUTO 26008KT 9SM OVC039 03/M01 A3000 RMK AO2 SLP162 T00281011 $
Wed 8th February 10:56 am
   Raw Metar Info
Raw METAR is the most common format in the world for the transmission of observational weather data. It is highly standardized through the International Civil Aviation Organization (ICAO), which allows it to be understood throughout most of the world.
   API Info
Data Provided by
https://www.checkwx.com/weather/
   © Info
CSS/SVG/PHP scripts were developed by weather34.com for use in the weather34 template © 2015-2023

Guide Info provided by Metar-Wikipedia